map of ETSH home
ETSH - Airport
Location
City:  Holzdorf, Brandenburg, Germany
ICAO:ETSH

Details
Type:Airport (Flugplatz, Airfield)
Use:Military
Latitude:5146'04"N (51.767867)
Longitude:1310'03"E (13.167600)
Elevation:265 ft (81 m)
Variation:3.95E (WMM2015v2 magnetic declination)
0.17 annual change
Runways:1
Longest:7936 × 98 ft (2419 × 30 m), paved

Time
Time Zone:UTC+1 (DST+2)
Local Time:

Weather
METAR:ETSH 041320Z 18007KT 9999 FEW016 SCT300 03/M01 Q1028 BLU+BLU+

Related Locations
Nearby:
Farthest:CHT: 11725 mi / 18870 km
Waitangi [Tuuta], CIT, NZ

Find:

   beyond  
but within

Other Information
Maps:
NOTAMs:
Links:
Sources:

  
  • flag of Germany
  • flag of Brandenburg
  

Sectional Chart

Flight Planning
at skyvector.com

Satellite Image

Google Maps Satellite view

 

Copyright © 2004-2019 Karl L. Swartz. All rights reserved.
The Great Circle Mapper name and logo are trademarks of the Great Circle Mapper.
All other trademarks mentioned herein belong to their respective owners.
Please see credits for attibutions and further copyright information.

  Follow gcmap on Facebook Follow gcmap on Twitter GCmap on LinkedIn

hCard Microformat

Geo Microformat